WetterOnline ( http://www.wetteronline.de )

Wetter aktuell Petershagen

Aktuelles Wetter: Diepholz (40m)

6-stündlich | Neueste Meldungen
Ortszeit Temperatur Wetter
Fr, 22.06. 20:00 14.2° C bewölkt
Fr, 22.06. 14:00 14.5° C bewölkt
Fr, 22.06. 8:00 9.7° C Regen
Fr, 22.06. 2:00 10.0° C Regen
Do, 21.06. 20:00 14.3° C leicht bewölkt
Do, 21.06. 14:00 14.3° C leicht bewölkt
Do, 21.06. 8:00 14.8° C Sprühregen
Do, 21.06. 2:00 17.5° C wolkenlos
Ortszeit Temperatur Wetter
Fr, 22.06. 22:30 12.1° C leicht bewölkt
Fr, 22.06. 22:20 12.1° C leicht bewölkt
Fr, 22.06. 22:10 12.2° C leicht bewölkt
Fr, 22.06. 22:00 12.8° C wolkig
Fr, 22.06. 21:50 12.8° C wolkig
Fr, 22.06. 21:40 12.9° C wolkig
Fr, 22.06. 21:30 13.3° C wolkig
Fr, 22.06. 21:00 13.6° C wolkig
Fr, 22.06. 20:30 14.0° C bewölkt
Fr, 22.06. 20:00 14.2° C bewölkt
Fr, 22.06. 19:30 14.9° C bewölkt
Ortszeit Relative Feuchte Sichtweite
Fr, 22.06. 20:00 64% 45 km
Fr, 22.06. 14:00 78% 35 km
Fr, 22.06. 8:00 93% 13 km
Fr, 22.06. 2:00 87% 45 km
Do, 21.06. 20:00 57% 70 km
Do, 21.06. 14:00 71% 10 km
Do, 21.06. 8:00 94% 11 km
Do, 21.06. 2:00 85% 11 km
Ortszeit Relative Feuchte Sichtweite
Fr, 22.06. 22:30 72% 35 km
Fr, 22.06. 22:20 72% -
Fr, 22.06. 22:10 72% -
Fr, 22.06. 22:00 69% 35 km
Fr, 22.06. 21:50 69% -
Fr, 22.06. 21:40 68% -
Fr, 22.06. 21:30 67% 45 km
Fr, 22.06. 21:00 64% 55 km
Fr, 22.06. 20:30 65% 45 km
Fr, 22.06. 20:00 64% 45 km
Fr, 22.06. 19:30 59% 60 km
Ortszeit Niederschlagsmenge Niederschlagsart
Fr, 22.06. 20:00 3 l/m2 in 12 Std. Regen
Fr, 22.06. 14:00 3 l/m2 in 6 Std. Regen
Fr, 22.06. 8:00 6 l/m2 in 12 Std. Regen
Fr, 22.06. 2:00 0.3 l/m2 in 6 Std. Regen
Do, 21.06. 20:00 0.7 l/m2 in 12 Std. Regen
Do, 21.06. 14:00 0.3 l/m2 in 6 Std. Regen
Do, 21.06. 8:00 4 l/m2 in 12 Std. Regen
Do, 21.06. 2:00 0.0 l/m2 in 6 Std. -
Ortszeit Niederschlagsmenge Niederschlagsart
Fr, 22.06. 22:30 0.0 l/m2 in 1 Std. -
Fr, 22.06. 22:20 keine Meldung -
Fr, 22.06. 22:10 keine Meldung -
Fr, 22.06. 22:00 0.0 l/m2 in 1 Std. -
Fr, 22.06. 21:50 keine Meldung -
Fr, 22.06. 21:40 keine Meldung -
Fr, 22.06. 21:30 0.0 l/m2 in 1 Std. -
Fr, 22.06. 21:00 0.0 l/m2 in 1 Std. -
Fr, 22.06. 20:30 0.0 l/m2 in 1 Std. -
Fr, 22.06. 20:00 0.0 l/m2 in 1 Std. Regen
Fr, 22.06. 19:30 0.0 l/m2 in 1 Std. -
Ortszeit Stärke Spitze Richtung
km/h Bft. km/h Grad Sektor
Fr, 22.06. 20:00 22 4 58 310° NW
Fr, 22.06. 14:00 19 3 61 310° NW
Fr, 22.06. 8:00 17 3 43 290° W
Fr, 22.06. 2:00 25 4 50 270° W
Do, 21.06. 20:00 26 4 63 290° W
Do, 21.06. 14:00 22 4 70 290° W
Do, 21.06. 8:00 14 3 32 310° NW
Do, 21.06. 2:00 7 2 29 290° W
Ortszeit Stärke Spitze Richtung
km/h Bft. km/h Grad Sektor
Fr, 22.06. 22:30 14 3 25 290° W
Fr, 22.06. 22:20 14 3 - 290° W
Fr, 22.06. 22:10 13 3 - 280° W
Fr, 22.06. 22:00 14 3 32 290° W
Fr, 22.06. 21:50 14 3 - 290° W
Fr, 22.06. 21:40 18 3 - 300° NW
Fr, 22.06. 21:30 18 3 32 300° NW
Fr, 22.06. 21:00 18 3 43 300° NW
Fr, 22.06. 20:30 20 4 35 300° NW
Fr, 22.06. 20:00 22 4 40 310° NW
Fr, 22.06. 19:30 22 4 40 310° NW
Ortszeit Untergrenze Bedeckung Gattung
total tief tief mittel hoch
Fr, 22.06. 20:00 1110 m 8/8 7/8 - - -
Fr, 22.06. 14:00 1260 m 7/8 7/8 - - -
Fr, 22.06. 8:00 1410 m 7/8 - - - -
Fr, 22.06. 2:00 600 m 7/8 7/8 - - -
Do, 21.06. 20:00 1260 m 2/8 2/8 - - -
Do, 21.06. 14:00 1230 m 4/8 5/8 - - -
Do, 21.06. 8:00 240 m 8/8 8/8 - - -
Do, 21.06. 2:00 - 0/8 0/8 - - -
Ortszeit Bedeckungsgrad in Achtel und Wolkenuntergrenze
Fr, 22.06. 22:30 3(1500m)
Fr, 22.06. 22:20 3(1500m)
Fr, 22.06. 22:10 3(1500m)
Fr, 22.06. 22:00 6(1500m)
Fr, 22.06. 21:50 6(1500m)
Fr, 22.06. 21:40 5(1500m)
Fr, 22.06. 21:30 6(1500m)
Fr, 22.06. 21:00 5(1500m)
Fr, 22.06. 20:30 7(1500m)
Fr, 22.06. 20:00 5(1110m) 8(1500m) 7(1500m)
Fr, 22.06. 19:30 1(1110m) 7(1800m)
Ortszeit Luftdruck NN (hPa) Tendenz (hPa in 3 Std.)
Fr, 22.06. 20:00 1024 + 1,2
Fr, 22.06. 14:00 1022 + 1,4
Fr, 22.06. 8:00 1019 + 0,4
Fr, 22.06. 2:00 1020 - 0,7
Do, 21.06. 20:00 1020 + 1,3
Do, 21.06. 14:00 1016 + 2,2
Do, 21.06. 8:00 1013 - 0,5
Do, 21.06. 2:00 1015 - 1,1
Ortszeit Luftdruck NN (hPa) Tendenz (hPa in 3 Std.)
Fr, 22.06. 22:30 1025 + 0,8
Fr, 22.06. 22:20 1025 keine Meldung
Fr, 22.06. 22:10 1025 keine Meldung
Fr, 22.06. 22:00 1025 + 0,7
Fr, 22.06. 21:50 1025 keine Meldung
Fr, 22.06. 21:40 1025 keine Meldung
Fr, 22.06. 21:30 1024 + 0,8
Fr, 22.06. 21:00 1024 + 0,8
Fr, 22.06. 20:30 1024 + 1,0
Fr, 22.06. 20:00 1024 + 1,2
Fr, 22.06. 19:30 1024 + 1,3
Ortszeit Schneehöhe (cm)
Fr, 22.06. 20:00 -
Fr, 22.06. 14:00 -
Fr, 22.06. 8:00 -
Fr, 22.06. 2:00 -
Do, 21.06. 20:00 -
Do, 21.06. 14:00 -
Do, 21.06. 8:00 -
Do, 21.06. 2:00 -
Ortszeit Schneehöhe (cm)
Fr, 22.06. 22:30 -
Fr, 22.06. 22:20 -
Fr, 22.06. 22:10 -
Fr, 22.06. 22:00 -
Fr, 22.06. 21:50 -
Fr, 22.06. 21:40 -
Fr, 22.06. 21:30 -
Fr, 22.06. 21:00 -
Fr, 22.06. 20:30 -
Fr, 22.06. 20:00 -
Fr, 22.06. 19:30 -
Link zu dieser Seite / Seite empfehlen

Das Wetter in ...